createdAt,value
2019-02-24T00:00:40.304Z,14.30
2019-02-24T00:01:40.283Z,13.50
2019-02-24T00:02:40.258Z,15.20
2019-02-24T00:03:40.252Z,14.30
2019-02-24T00:04:40.236Z,14.60
2019-02-24T00:05:40.247Z,13.90
2019-02-24T00:06:40.217Z,13.80
2019-02-24T00:07:40.199Z,13.00
2019-02-24T00:08:40.183Z,14.00
2019-02-24T00:09:40.190Z,15.00
2019-02-24T00:10:40.198Z,13.90
2019-02-24T00:11:40.157Z,13.20
2019-02-24T00:12:40.156Z,14.10
2019-02-24T00:13:40.132Z,14.40
2019-02-24T00:14:40.139Z,14.40
2019-02-24T00:15:40.161Z,14.90
2019-02-24T00:16:40.119Z,14.60
2019-02-24T00:17:40.091Z,13.10
2019-02-24T00:18:40.088Z,13.50
2019-02-24T00:19:40.077Z,13.20
2019-02-24T00:20:40.091Z,12.70
2019-02-24T00:21:40.056Z,12.90
2019-02-24T00:22:40.030Z,13.40
2019-02-24T00:23:40.028Z,13.90
2019-02-24T00:24:40.023Z,13.40
2019-02-24T00:25:40.000Z,14.30
2019-02-24T00:26:40.005Z,13.70
2019-02-24T00:27:39.978Z,13.30
2019-02-24T00:28:39.971Z,14.00
2019-02-24T00:29:39.965Z,14.10
2019-02-24T00:30:39.958Z,13.10
2019-02-24T00:31:39.965Z,14.00
2019-02-24T00:32:39.933Z,13.80
2019-02-24T00:33:39.924Z,12.90
2019-02-24T00:34:39.909Z,13.50
2019-02-24T00:35:39.893Z,14.30
2019-02-24T00:36:39.912Z,14.20
2019-02-24T00:37:39.877Z,14.70
2019-02-24T00:39:49.307Z,13.60
2019-02-24T00:40:50.052Z,14.00
2019-02-24T00:41:50.071Z,13.60
2019-02-24T00:42:50.036Z,13.70
2019-02-24T00:43:50.022Z,13.40
2019-02-24T00:44:50.015Z,14.80
2019-02-24T00:45:49.995Z,13.60
2019-02-24T00:46:50.007Z,15.10
2019-02-24T00:47:49.985Z,15.00
2019-02-24T00:48:49.966Z,13.80
2019-02-24T00:49:49.955Z,14.00
2019-02-24T00:50:49.937Z,15.10
2019-02-24T00:51:49.938Z,15.20
2019-02-24T00:52:49.942Z,14.50
2019-02-24T00:53:49.921Z,14.50
2019-02-24T00:54:49.905Z,14.70
2019-02-24T00:55:49.893Z,15.00
2019-02-24T00:56:50.774Z,13.70
2019-02-24T00:57:49.879Z,15.30
2019-02-24T00:58:49.865Z,14.60
2019-02-24T00:59:49.858Z,14.00
2019-02-24T01:00:49.832Z,14.10
2019-02-24T01:01:49.829Z,14.20
2019-02-24T01:02:49.841Z,15.30
2019-02-24T01:03:49.801Z,13.60
2019-02-24T01:04:49.792Z,13.60
2019-02-24T01:05:49.773Z,14.50
2019-02-24T01:06:49.770Z,14.40
2019-02-24T01:07:49.790Z,14.10
2019-02-24T01:08:49.760Z,14.10
2019-02-24T01:09:49.741Z,17.10
2019-02-24T01:10:49.729Z,14.90
2019-02-24T01:11:49.711Z,14.80
2019-02-24T01:12:49.728Z,14.10
2019-02-24T01:13:49.697Z,15.80
2019-02-24T01:14:49.683Z,13.90
2019-02-24T01:15:49.677Z,15.90
2019-02-24T01:16:49.668Z,13.50
2019-02-24T01:17:49.675Z,14.20
2019-02-24T01:18:49.639Z,15.00
2019-02-24T01:19:49.651Z,14.90
2019-02-24T01:20:49.622Z,14.50
2019-02-24T01:21:49.614Z,14.50
2019-02-24T01:22:49.630Z,14.20
2019-02-24T01:23:49.591Z,14.40
2019-02-24T01:24:49.574Z,14.70
2019-02-24T01:25:49.556Z,13.60
2019-02-24T01:26:49.544Z,15.60
2019-02-24T01:27:49.563Z,14.40
2019-02-24T01:28:49.538Z,14.20
2019-02-24T01:29:49.524Z,13.90
2019-02-24T01:30:49.500Z,15.00
2019-02-24T01:31:49.507Z,14.10
2019-02-24T01:32:49.481Z,13.60
2019-02-24T01:33:49.486Z,14.10
2019-02-24T01:34:49.470Z,14.20
2019-02-24T01:35:49.454Z,13.90
2019-02-24T01:36:49.436Z,16.00
2019-02-24T01:37:49.448Z,13.90
2019-02-24T01:38:49.452Z,13.90
2019-02-24T01:39:49.412Z,13.10
2019-02-24T01:40:49.421Z,13.90
2019-02-24T01:41:49.401Z,13.70
2019-02-24T01:42:49.401Z,15.10
2019-02-24T01:43:49.367Z,14.70
2019-02-24T01:44:49.352Z,14.30
2019-02-24T01:45:49.338Z,14.60
2019-02-24T01:46:49.331Z,15.90
2019-02-24T01:47:49.341Z,14.90
2019-02-24T01:48:49.325Z,14.80
2019-02-24T01:49:49.294Z,16.00
2019-02-24T01:50:49.295Z,15.20
2019-02-24T01:51:49.275Z,13.70
2019-02-24T01:52:49.302Z,14.10
2019-02-24T01:53:49.266Z,13.20
2019-02-24T01:54:49.257Z,14.60
2019-02-24T01:55:49.242Z,14.20
2019-02-24T01:56:49.223Z,14.50
2019-02-24T01:57:49.258Z,15.30
2019-02-24T01:58:49.213Z,14.10
2019-02-24T01:59:49.196Z,13.90
2019-02-24T02:00:49.173Z,14.10
2019-02-24T02:01:49.167Z,14.90
2019-02-24T02:02:49.187Z,14.30
2019-02-24T02:03:49.162Z,14.60
2019-02-24T02:04:49.140Z,13.40
2019-02-24T02:05:49.123Z,15.70
2019-02-24T02:06:49.111Z,14.50
2019-02-24T02:07:49.122Z,16.20
2019-02-24T02:08:49.098Z,13.90
2019-02-24T02:09:49.089Z,14.20
2019-02-24T02:10:49.073Z,16.40
2019-02-24T02:11:49.067Z,14.40
2019-02-24T02:12:49.086Z,13.90
2019-02-24T02:13:49.048Z,15.40
2019-02-24T02:14:49.031Z,14.30
2019-02-24T02:15:49.022Z,14.40
2019-02-24T02:16:49.004Z,14.10
2019-02-24T02:17:48.992Z,15.40
2019-02-24T02:18:49.018Z,14.40
2019-02-24T02:19:48.975Z,16.10
2019-02-24T02:20:49.000Z,13.00
2019-02-24T02:21:48.948Z,14.20
2019-02-24T02:22:48.948Z,15.20
2019-02-24T02:23:48.951Z,15.90
2019-02-24T02:24:48.921Z,15.80
2019-02-24T02:25:48.901Z,14.80
2019-02-24T02:26:48.890Z,13.80
2019-02-24T02:27:48.891Z,14.90
2019-02-24T02:28:48.897Z,13.60
2019-02-24T02:29:48.871Z,14.00
2019-02-24T02:30:48.848Z,15.00
2019-02-24T02:31:48.835Z,16.30
2019-02-24T02:32:48.835Z,14.50
2019-02-24T02:33:48.838Z,14.20
2019-02-24T02:34:48.855Z,17.40
2019-02-24T02:35:48.808Z,14.20
2019-02-24T02:36:48.800Z,16.70
2019-02-24T02:37:48.783Z,15.00
2019-02-24T02:38:48.784Z,14.50
2019-02-24T02:40:58.229Z,14.80
2019-02-24T02:41:59.230Z,13.70
2019-02-24T02:42:59.216Z,14.80
2019-02-24T02:43:59.242Z,14.90
2019-02-24T02:44:59.193Z,14.80
2019-02-24T02:45:59.174Z,14.70
2019-02-24T02:46:59.163Z,14.20
2019-02-24T02:47:59.152Z,15.10
2019-02-24T02:48:59.172Z,17.20
2019-02-24T02:49:59.142Z,14.00
2019-02-24T02:50:59.136Z,16.60
2019-02-24T02:51:59.126Z,14.90
2019-02-24T02:52:59.105Z,15.20
2019-02-24T02:53:59.115Z,13.70
2019-02-24T02:54:59.084Z,14.00
2019-02-24T02:55:59.082Z,13.80
2019-02-24T02:56:59.063Z,13.80
2019-02-24T02:57:59.055Z,14.00
2019-02-24T02:58:59.064Z,14.20
2019-02-24T02:59:59.032Z,15.30
2019-02-24T03:00:59.010Z,14.20
2019-02-24T03:01:59.005Z,13.50
2019-02-24T03:02:58.994Z,14.10
2019-02-24T03:03:58.982Z,14.30
2019-02-24T03:04:59.003Z,13.60
2019-02-24T03:05:58.969Z,13.30
2019-02-24T03:06:58.968Z,14.00
2019-02-24T03:07:58.944Z,14.30
2019-02-24T03:08:58.933Z,15.00
2019-02-24T03:09:58.967Z,13.30
2019-02-24T03:10:58.910Z,13.80
2019-02-24T03:11:58.907Z,14.50
2019-02-24T03:12:58.900Z,15.70
2019-02-24T03:13:58.886Z,14.40
2019-02-24T03:14:58.886Z,14.50
2019-02-24T03:15:58.866Z,13.20
2019-02-24T03:16:58.839Z,13.40
2019-02-24T03:17:58.840Z,15.10
2019-02-24T03:18:58.830Z,15.30
2019-02-24T03:19:58.832Z,13.90
2019-02-24T03:20:58.808Z,15.20
2019-02-24T03:21:58.804Z,13.60
2019-02-24T03:22:58.786Z,13.80
2019-02-24T03:23:58.774Z,14.10
2019-02-24T03:24:58.776Z,14.30
2019-02-24T03:25:58.749Z,13.00
2019-02-24T03:26:59.700Z,12.30
2019-02-24T03:27:58.725Z,13.60
2019-02-24T03:29:04.019Z,13.00
2019-02-24T03:29:58.730Z,13.50
2019-02-24T03:30:58.725Z,13.20
2019-02-24T03:31:58.697Z,13.40
2019-02-24T03:32:58.689Z,13.40
2019-02-24T03:33:58.673Z,14.00
2019-02-24T03:34:58.651Z,14.00
2019-02-24T03:35:58.740Z,13.00
2019-02-24T03:36:58.627Z,14.00
2019-02-24T03:37:58.620Z,13.70
2019-02-24T03:38:58.610Z,13.80
2019-02-24T03:39:58.610Z,14.50
2019-02-24T03:40:58.613Z,13.40
2019-02-24T03:41:58.585Z,13.60
2019-02-24T03:42:58.576Z,13.90
2019-02-24T03:43:58.567Z,13.30
2019-02-24T03:44:58.561Z,13.40
2019-02-24T03:45:58.550Z,13.40
2019-02-24T03:46:58.524Z,12.70
2019-02-24T03:47:58.516Z,13.70
2019-02-24T03:48:58.508Z,14.10
2019-02-24T03:49:58.505Z,12.80
2019-02-24T03:50:58.512Z,14.90
2019-02-24T03:51:58.472Z,13.00
2019-02-24T03:52:58.466Z,14.00
2019-02-24T03:53:58.451Z,12.80
2019-02-24T03:54:58.447Z,14.20
2019-02-24T03:55:58.462Z,13.40
2019-02-24T03:56:58.440Z,14.40
2019-02-24T03:57:58.411Z,14.00
2019-02-24T03:58:58.391Z,14.60
2019-02-24T03:59:58.388Z,15.40
2019-02-24T04:00:58.399Z,13.70
2019-02-24T04:01:58.371Z,14.30
2019-02-24T04:02:58.365Z,14.20
2019-02-24T04:03:58.377Z,13.60
2019-02-24T04:04:58.339Z,14.70
2019-02-24T04:05:58.340Z,15.30
2019-02-24T04:06:58.335Z,14.30
2019-02-24T04:07:58.301Z,15.40
2019-02-24T04:08:58.299Z,16.60
2019-02-24T04:09:58.282Z,14.60
2019-02-24T04:10:58.293Z,15.60
2019-02-24T04:11:58.265Z,15.00
2019-02-24T04:12:58.262Z,15.00
2019-02-24T04:13:58.256Z,15.30
2019-02-24T04:14:58.247Z,14.60
2019-02-24T04:15:58.238Z,15.30
2019-02-24T04:16:58.215Z,15.40
2019-02-24T04:17:58.191Z,15.00
2019-02-24T04:18:58.177Z,14.70
2019-02-24T04:19:58.174Z,12.40
2019-02-24T04:20:58.183Z,13.80
2019-02-24T04:21:58.149Z,14.90
2019-02-24T04:22:58.150Z,16.60
2019-02-24T04:23:58.149Z,14.70
2019-02-24T04:24:58.122Z,14.20
2019-02-24T04:25:58.131Z,15.40
2019-02-24T04:26:58.120Z,13.20
2019-02-24T04:27:58.097Z,14.40
2019-02-24T04:28:58.109Z,15.50
2019-02-24T04:29:58.065Z,14.30
2019-02-24T04:30:58.070Z,14.70
2019-02-24T04:31:58.059Z,12.80
2019-02-24T04:32:58.035Z,14.10
2019-02-24T04:33:58.030Z,15.20
2019-02-24T04:34:58.019Z,13.70
2019-02-24T04:35:58.015Z,14.00
2019-02-24T04:36:58.000Z,15.00
2019-02-24T04:37:57.982Z,15.80
2019-02-24T04:38:57.979Z,17.10
2019-02-24T04:39:57.967Z,12.80
2019-02-24T04:42:07.230Z,16.40
2019-02-24T04:43:08.148Z,13.40
2019-02-24T04:44:08.126Z,13.30
2019-02-24T04:45:08.129Z,15.60
2019-02-24T04:46:08.099Z,16.60
2019-02-24T04:47:08.131Z,13.60
2019-02-24T04:48:08.088Z,16.00
2019-02-24T04:49:08.076Z,14.40
2019-02-24T04:50:08.063Z,14.40
2019-02-24T04:51:08.889Z,15.80
2019-02-24T04:52:08.042Z,13.90
2019-02-24T04:53:08.043Z,14.90
2019-02-24T04:54:08.024Z,17.20
2019-02-24T04:55:08.011Z,15.60
2019-02-24T04:56:08.000Z,16.30
2019-02-24T04:57:07.978Z,14.70
2019-02-24T04:58:08.003Z,15.20
2019-02-24T04:59:08.728Z,15.70
2019-02-24T05:00:07.972Z,15.60
2019-02-24T05:01:07.939Z,18.20
2019-02-24T05:02:07.952Z,15.30
2019-02-24T05:03:07.987Z,15.90
2019-02-24T05:04:07.911Z,16.20
2019-02-24T05:05:07.938Z,15.40
2019-02-24T05:06:07.900Z,14.50
2019-02-24T05:07:07.886Z,15.50
2019-02-24T05:08:07.879Z,14.30
2019-02-24T05:09:07.879Z,15.30
2019-02-24T05:10:07.855Z,16.80
2019-02-24T05:11:07.838Z,14.80
2019-02-24T05:12:07.835Z,15.00
2019-02-24T05:13:07.817Z,15.40
2019-02-24T05:14:07.840Z,16.00
2019-02-24T05:15:07.788Z,15.20
2019-02-24T05:16:07.787Z,15.10
2019-02-24T05:17:07.773Z,16.90
2019-02-24T05:18:07.782Z,15.50
2019-02-24T05:19:07.760Z,15.30
2019-02-24T05:20:07.735Z,16.10
2019-02-24T05:21:07.729Z,16.80
2019-02-24T05:22:07.723Z,15.10
2019-02-24T05:23:07.707Z,16.00
2019-02-24T05:24:07.716Z,15.50
2019-02-24T05:25:07.695Z,15.80
2019-02-24T05:26:07.678Z,15.50
2019-02-24T05:27:07.663Z,16.50
2019-02-24T05:28:07.669Z,15.90
2019-02-24T05:29:07.655Z,15.60
2019-02-24T05:30:07.647Z,15.50
2019-02-24T05:31:07.627Z,16.00
2019-02-24T05:32:07.609Z,15.50
2019-02-24T05:33:07.601Z,15.60
2019-02-24T05:34:07.627Z,16.60
2019-02-24T05:35:07.587Z,18.20
2019-02-24T05:36:07.591Z,16.40
2019-02-24T05:37:07.576Z,15.30
2019-02-24T05:38:07.576Z,15.70
2019-02-24T05:39:07.578Z,17.10
2019-02-24T05:40:07.518Z,16.60
2019-02-24T05:41:07.528Z,18.70
2019-02-24T05:42:07.510Z,17.90
2019-02-24T05:43:07.517Z,17.70
2019-02-24T05:44:07.505Z,18.80
2019-02-24T05:45:07.471Z,17.80
2019-02-24T05:46:07.467Z,17.30
2019-02-24T05:47:07.458Z,16.60
2019-02-24T05:48:07.448Z,16.40
2019-02-24T05:49:07.449Z,18.40
2019-02-24T05:50:07.424Z,17.60
2019-02-24T05:51:07.409Z,17.00
2019-02-24T05:52:07.399Z,16.20
2019-02-24T05:53:07.394Z,16.70
2019-02-24T05:54:07.406Z,17.40
2019-02-24T05:55:07.370Z,15.90
2019-02-24T05:56:07.359Z,17.30
2019-02-24T05:57:07.482Z,17.30
2019-02-24T05:58:07.355Z,15.60
2019-02-24T05:59:07.340Z,17.00
2019-02-24T06:00:07.325Z,15.70
2019-02-24T06:01:07.304Z,18.60
2019-02-24T06:02:07.290Z,18.00
2019-02-24T06:03:07.287Z,17.30
2019-02-24T06:04:07.280Z,16.70
2019-02-24T06:05:07.258Z,17.20
2019-02-24T06:06:07.249Z,17.90
2019-02-24T06:07:07.244Z,16.60
2019-02-24T06:08:07.221Z,17.80
2019-02-24T06:09:07.235Z,21.00
2019-02-24T06:10:07.219Z,16.90
2019-02-24T06:11:07.192Z,18.60
2019-02-24T06:12:07.173Z,18.00
2019-02-24T06:13:07.176Z,17.60
2019-02-24T06:14:07.180Z,17.30
2019-02-24T06:15:07.156Z,18.10
2019-02-24T06:16:07.138Z,19.40
2019-02-24T06:17:07.129Z,18.60
2019-02-24T06:18:07.111Z,18.50
2019-02-24T06:19:07.120Z,19.00
2019-02-24T06:20:07.407Z,18.60
2019-02-24T06:21:07.079Z,17.40
2019-02-24T06:22:07.069Z,18.80
2019-02-24T06:23:07.059Z,16.40
2019-02-24T06:24:07.092Z,18.40
2019-02-24T06:25:07.060Z,17.10
2019-02-24T06:26:07.031Z,17.20
2019-02-24T06:27:07.026Z,16.70
2019-02-24T06:28:07.013Z,17.60
2019-02-24T06:29:07.017Z,18.30
2019-02-24T06:30:07.009Z,18.10
2019-02-24T06:31:06.976Z,17.20
2019-02-24T06:32:06.960Z,18.40
2019-02-24T06:33:06.955Z,18.30
2019-02-24T06:34:06.945Z,18.50
2019-02-24T06:35:06.963Z,18.20
2019-02-24T06:36:06.917Z,19.70
2019-02-24T06:37:06.912Z,16.70
2019-02-24T06:38:06.910Z,16.60
2019-02-24T06:39:06.895Z,17.80
2019-02-24T06:40:06.905Z,18.10
2019-02-24T06:41:06.870Z,18.20
2019-02-24T06:43:16.356Z,16.10
2019-02-24T06:44:17.339Z,18.90
2019-02-24T06:45:17.352Z,16.50
2019-02-24T06:46:17.324Z,17.40
2019-02-24T06:47:17.300Z,18.30
2019-02-24T06:48:17.288Z,16.50
2019-02-24T06:49:17.278Z,18.20
2019-02-24T06:50:17.293Z,17.50
2019-02-24T06:51:17.266Z,17.40
2019-02-24T06:52:17.245Z,17.00
2019-02-24T06:53:17.254Z,16.70
2019-02-24T06:54:17.257Z,17.20
2019-02-24T06:55:17.252Z,15.50
2019-02-24T06:56:17.202Z,16.00
2019-02-24T06:57:17.199Z,16.40
2019-02-24T06:58:18.477Z,16.70
2019-02-24T06:59:17.191Z,15.00
2019-02-24T07:00:17.192Z,14.60
2019-02-24T07:01:17.167Z,15.70
2019-02-24T07:02:17.136Z,15.50
2019-02-24T07:03:17.129Z,14.50
2019-02-24T07:04:17.144Z,15.60
2019-02-24T07:05:17.140Z,15.30
2019-02-24T07:06:17.104Z,15.10
2019-02-24T07:07:17.086Z,15.50
2019-02-24T07:08:17.087Z,15.50
2019-02-24T07:09:19.081Z,13.80
2019-02-24T07:10:17.080Z,15.10
2019-02-24T07:11:17.051Z,14.80
2019-02-24T07:12:17.057Z,14.30
2019-02-24T07:13:17.030Z,14.40
2019-02-24T07:14:17.021Z,14.30
2019-02-24T07:15:17.001Z,12.70
2019-02-24T07:16:16.999Z,14.40
2019-02-24T07:17:16.979Z,14.10
2019-02-24T07:18:16.970Z,14.50
2019-02-24T07:19:16.968Z,14.80
2019-02-24T07:20:16.969Z,12.40
2019-02-24T07:21:16.974Z,13.80
2019-02-24T07:22:16.935Z,13.30
2019-02-24T07:23:16.921Z,12.20
2019-02-24T07:24:16.909Z,13.70
2019-02-24T07:25:16.904Z,13.70
2019-02-24T07:26:16.913Z,12.50
2019-02-24T07:27:16.878Z,12.30
2019-02-24T07:28:16.870Z,13.00
2019-02-24T07:29:16.849Z,13.20
2019-02-24T07:30:23.154Z,12.50
2019-02-24T07:31:16.861Z,12.50
2019-02-24T07:32:16.843Z,12.80
2019-02-24T07:33:16.818Z,12.20
2019-02-24T07:34:16.806Z,14.90
2019-02-24T07:35:16.808Z,12.50
2019-02-24T07:36:16.789Z,13.80
2019-02-24T07:37:16.777Z,11.90
2019-02-24T07:38:16.759Z,11.80
2019-02-24T07:39:16.740Z,12.20
2019-02-24T07:40:16.732Z,12.50
2019-02-24T07:41:16.737Z,13.70
2019-02-24T07:42:16.711Z,12.20
2019-02-24T07:43:16.700Z,12.80
2019-02-24T07:44:16.707Z,14.30
2019-02-24T07:45:16.685Z,13.50
2019-02-24T07:46:16.688Z,12.50
2019-02-24T07:47:16.674Z,12.20
2019-02-24T07:48:16.655Z,14.20
2019-02-24T07:49:16.634Z,13.50
2019-02-24T07:50:16.624Z,12.80
2019-02-24T07:51:16.647Z,12.60
2019-02-24T07:52:16.607Z,13.30
2019-02-24T07:53:16.596Z,12.90
2019-02-24T07:54:16.578Z,13.10
2019-02-24T07:55:16.582Z,11.50
2019-02-24T07:56:16.592Z,11.80
2019-02-24T07:57:16.553Z,13.40
2019-02-24T07:58:16.541Z,13.30
2019-02-24T07:59:16.534Z,11.70
2019-02-24T08:00:16.530Z,13.60
2019-02-24T08:01:16.530Z,12.90
2019-02-24T08:02:16.530Z,11.50
2019-02-24T08:03:16.493Z,13.40
2019-02-24T08:04:16.485Z,12.30
2019-02-24T08:05:16.473Z,12.80
2019-02-24T08:06:16.493Z,12.30
2019-02-24T08:07:16.456Z,16.10
2019-02-24T08:08:16.862Z,12.30
2019-02-24T08:09:16.421Z,12.30
2019-02-24T08:10:16.423Z,11.40
2019-02-24T08:11:16.429Z,11.90
2019-02-24T08:12:16.401Z,12.00
2019-02-24T08:13:16.378Z,11.50
2019-02-24T08:14:16.367Z,12.50
2019-02-24T08:15:16.357Z,11.80
2019-02-24T08:16:16.391Z,13.30
2019-02-24T08:17:16.358Z,12.30
2019-02-24T08:18:16.333Z,11.80
2019-02-24T08:19:16.319Z,11.30
2019-02-24T08:20:16.314Z,11.70
2019-02-24T08:21:16.316Z,11.50
2019-02-24T08:22:16.294Z,11.90
2019-02-24T08:23:16.278Z,10.90
2019-02-24T08:24:16.270Z,10.70
2019-02-24T08:25:16.255Z,11.10
2019-02-24T08:26:16.298Z,11.40
2019-02-24T08:27:16.313Z,11.10
2019-02-24T08:28:16.217Z,11.70
2019-02-24T08:29:16.217Z,12.10
2019-02-24T08:30:16.198Z,11.00
2019-02-24T08:31:16.196Z,12.50
2019-02-24T08:32:16.179Z,10.80
2019-02-24T08:33:16.172Z,11.20
2019-02-24T08:34:16.165Z,11.00
2019-02-24T08:35:16.161Z,11.50
2019-02-24T08:36:16.156Z,13.50
2019-02-24T08:37:16.130Z,12.70
2019-02-24T08:38:16.120Z,12.40
2019-02-24T08:39:16.122Z,12.30
2019-02-24T08:40:16.098Z,10.90
2019-02-24T08:41:16.100Z,12.80
2019-02-24T08:42:16.099Z,13.30
2019-02-24T08:44:25.292Z,10.80
2019-02-24T08:45:26.256Z,11.60
2019-02-24T08:46:26.263Z,11.60
2019-02-24T08:47:26.285Z,12.00
2019-02-24T08:48:26.240Z,12.10
2019-02-24T08:49:26.218Z,10.80
2019-02-24T08:50:26.210Z,11.30
2019-02-24T08:51:26.198Z,11.40
2019-02-24T08:52:26.218Z,11.20
2019-02-24T08:53:26.176Z,12.10
2019-02-24T08:54:26.185Z,12.40
2019-02-24T08:55:26.167Z,12.80
2019-02-24T08:56:26.140Z,11.50
2019-02-24T08:57:26.151Z,11.60
2019-02-24T08:58:26.127Z,10.20
2019-02-24T08:59:26.099Z,11.00
2019-02-24T09:00:26.097Z,11.20
2019-02-24T09:01:26.088Z,9.60
2019-02-24T09:02:26.085Z,11.40
2019-02-24T09:03:26.083Z,10.20
2019-02-24T09:04:26.078Z,11.20
2019-02-24T09:05:26.047Z,10.70
2019-02-24T09:06:26.038Z,11.70
2019-02-24T09:07:26.017Z,11.80
2019-02-24T09:08:26.015Z,11.50
2019-02-24T09:09:26.030Z,11.40
2019-02-24T09:10:25.993Z,11.20
2019-02-24T09:11:26.001Z,11.30
2019-02-24T09:12:25.963Z,11.40
2019-02-24T09:13:25.979Z,11.60
2019-02-24T09:14:25.949Z,11.30
2019-02-24T09:15:25.926Z,12.10
2019-02-24T09:16:25.922Z,11.20
2019-02-24T09:17:25.918Z,11.10
2019-02-24T09:18:25.923Z,11.30
2019-02-24T09:19:25.889Z,9.90
2019-02-24T09:20:25.880Z,12.30
2019-02-24T09:21:25.891Z,10.90
2019-02-24T09:22:25.868Z,11.90
2019-02-24T09:23:25.865Z,11.20
2019-02-24T09:24:25.837Z,11.20
2019-02-24T09:25:25.821Z,10.50
2019-02-24T09:26:25.818Z,11.40
2019-02-24T09:27:25.799Z,10.30
2019-02-24T09:28:25.810Z,11.00
2019-02-24T09:29:25.782Z,10.90
2019-02-24T09:30:25.768Z,11.30
2019-02-24T09:31:25.753Z,10.30
2019-02-24T09:32:25.755Z,11.20
2019-02-24T09:33:25.771Z,11.40
2019-02-24T09:34:25.731Z,10.60
2019-02-24T09:35:25.716Z,11.60
2019-02-24T09:36:25.694Z,10.40
2019-02-24T09:37:25.696Z,10.10
2019-02-24T09:38:25.703Z,10.80
2019-02-24T09:39:25.677Z,10.00
2019-02-24T09:40:25.674Z,11.00
2019-02-24T09:41:25.648Z,9.60
2019-02-24T09:42:25.637Z,10.40
2019-02-24T09:43:25.646Z,9.80
2019-02-24T09:44:25.614Z,10.80
2019-02-24T09:45:25.643Z,11.90
2019-02-24T09:46:25.594Z,11.40
2019-02-24T09:47:25.585Z,10.70
2019-02-24T09:48:25.582Z,10.00
2019-02-24T09:49:25.569Z,10.60
2019-02-24T09:50:25.545Z,10.40
2019-02-24T09:51:26.514Z,10.00
2019-02-24T09:52:25.530Z,10.30
2019-02-24T09:53:25.540Z,9.50
2019-02-24T09:54:25.508Z,9.60
2019-02-24T09:55:25.494Z,9.80
2019-02-24T09:56:25.510Z,9.30
2019-02-24T09:57:25.479Z,10.00
2019-02-24T09:58:25.485Z,10.60
2019-02-24T09:59:25.451Z,9.10
2019-02-24T10:00:25.443Z,10.00
2019-02-24T10:01:25.420Z,9.40
2019-02-24T10:02:25.416Z,10.40
2019-02-24T10:03:25.454Z,10.60
2019-02-24T10:04:25.391Z,10.50
2019-02-24T10:05:25.379Z,9.90
2019-02-24T10:06:25.373Z,9.90
2019-02-24T10:07:25.376Z,10.00
2019-02-24T10:08:25.379Z,10.40
2019-02-24T10:09:25.341Z,10.00
2019-02-24T10:10:25.328Z,9.90
2019-02-24T10:11:25.308Z,10.20
2019-02-24T10:12:25.305Z,9.60
2019-02-24T10:13:25.319Z,8.80
2019-02-24T10:14:25.285Z,9.60
2019-02-24T10:15:25.275Z,11.30
2019-02-24T10:16:25.262Z,9.40
2019-02-24T10:17:25.255Z,10.40
2019-02-24T10:18:25.241Z,9.70
2019-02-24T10:19:25.242Z,10.10
2019-02-24T10:20:25.219Z,11.90
2019-02-24T10:21:25.214Z,10.60
2019-02-24T10:22:25.190Z,10.40
2019-02-24T10:23:27.062Z,10.30
2019-02-24T10:24:25.185Z,10.60
2019-02-24T10:25:25.166Z,10.10
2019-02-24T10:26:25.149Z,9.60
2019-02-24T10:27:25.159Z,9.20
2019-02-24T10:28:25.201Z,10.50
2019-02-24T10:29:25.126Z,9.70
2019-02-24T10:30:25.111Z,8.30
2019-02-24T10:31:25.096Z,8.50
2019-02-24T10:32:25.092Z,9.10
2019-02-24T10:33:25.099Z,7.70
2019-02-24T10:34:25.073Z,7.60
2019-02-24T10:35:25.056Z,7.60
2019-02-24T10:36:25.039Z,8.30
2019-02-24T10:37:25.032Z,6.70
2019-02-24T10:38:25.027Z,7.70
2019-02-24T10:39:29.624Z,7.50
2019-02-24T10:40:24.997Z,7.80
2019-02-24T10:41:24.984Z,8.40
2019-02-24T10:42:24.983Z,7.90
2019-02-24T10:43:24.968Z,8.10
2019-02-24T10:45:34.170Z,8.00
2019-02-24T10:46:35.126Z,8.70
2019-02-24T10:47:35.115Z,9.10
2019-02-24T10:48:35.113Z,9.30
2019-02-24T10:49:35.098Z,8.60
2019-02-24T10:50:35.114Z,8.80
2019-02-24T10:51:35.097Z,9.80
2019-02-24T10:52:35.068Z,10.40
2019-02-24T10:53:35.055Z,9.10
2019-02-24T10:54:35.051Z,9.10
2019-02-24T10:55:35.034Z,9.70
2019-02-24T10:56:35.032Z,8.80
2019-02-24T10:57:35.031Z,9.20
2019-02-24T10:58:35.180Z,8.80
2019-02-24T10:59:34.990Z,9.40
2019-02-24T11:00:34.971Z,9.10
2019-02-24T11:01:34.987Z,9.40
2019-02-24T11:02:34.957Z,9.00
2019-02-24T11:03:34.937Z,8.90
2019-02-24T11:04:34.940Z,8.80
2019-02-24T11:05:34.926Z,8.60
2019-02-24T11:06:34.940Z,8.60
2019-02-24T11:07:34.900Z,8.80
2019-02-24T11:08:34.892Z,8.60
2019-02-24T11:09:34.871Z,8.70
2019-02-24T11:10:34.867Z,8.50
2019-02-24T11:11:34.877Z,9.20
2019-02-24T11:12:34.856Z,8.60
2019-02-24T11:13:34.832Z,9.00
2019-02-24T11:14:34.812Z,9.00
2019-02-24T11:15:34.822Z,9.70
2019-02-24T11:16:34.829Z,9.00
2019-02-24T11:17:34.788Z,9.20
2019-02-24T11:18:34.769Z,9.00
2019-02-24T11:19:34.757Z,8.60
2019-02-24T11:20:34.754Z,9.70
2019-02-24T11:21:34.766Z,8.90
2019-02-24T11:22:34.736Z,9.20
2019-02-24T11:23:34.717Z,8.90
2019-02-24T11:24:34.713Z,9.20
2019-02-24T11:25:34.695Z,9.00
2019-02-24T11:26:34.706Z,9.70
2019-02-24T11:27:34.694Z,9.20
2019-02-24T11:28:34.667Z,8.40
2019-02-24T11:29:34.650Z,8.10
2019-02-24T11:30:34.648Z,8.20
2019-02-24T11:31:38.356Z,8.50
2019-02-24T11:32:34.629Z,8.20
2019-02-24T11:33:34.608Z,8.80
2019-02-24T11:34:34.592Z,8.00
2019-02-24T11:35:34.582Z,8.20
2019-02-24T11:36:34.607Z,9.10
2019-02-24T11:37:34.576Z,7.80
2019-02-24T11:38:34.567Z,8.30
2019-02-24T11:39:34.548Z,9.20
2019-02-24T11:40:34.547Z,8.30
2019-02-24T11:41:34.535Z,8.20
2019-02-24T11:42:34.562Z,8.00
2019-02-24T11:43:34.513Z,8.40
2019-02-24T11:44:34.489Z,8.50
2019-02-24T11:45:34.485Z,9.00
2019-02-24T11:46:34.487Z,8.60
2019-02-24T11:47:34.477Z,8.50
2019-02-24T11:48:34.439Z,8.40
2019-02-24T11:49:34.440Z,8.70
2019-02-24T11:50:34.429Z,9.10
2019-02-24T11:51:34.437Z,9.10
2019-02-24T11:52:34.415Z,9.40
2019-02-24T11:53:34.385Z,9.00
2019-02-24T11:54:34.383Z,11.20
2019-02-24T11:55:34.370Z,9.30
2019-02-24T11:56:34.387Z,9.20
2019-02-24T11:57:34.343Z,9.30
2019-02-24T11:58:34.336Z,9.10
2019-02-24T11:59:34.337Z,9.50
2019-02-24T12:00:34.316Z,8.70
2019-02-24T12:01:34.324Z,9.10
2019-02-24T12:02:34.817Z,9.20
2019-02-24T12:03:34.288Z,8.10
2019-02-24T12:04:34.283Z,9.20
2019-02-24T12:05:34.251Z,9.80
2019-02-24T12:06:34.271Z,8.60
2019-02-24T12:07:34.245Z,9.50
2019-02-24T12:08:34.235Z,9.00
2019-02-24T12:09:34.210Z,8.80
2019-02-24T12:10:34.209Z,8.50
2019-02-24T12:11:34.214Z,8.90
2019-02-24T12:12:34.182Z,8.60
2019-02-24T12:13:34.181Z,8.50
2019-02-24T12:14:34.168Z,8.60
2019-02-24T12:15:34.154Z,7.70
2019-02-24T12:16:34.162Z,8.80
2019-02-24T12:17:34.135Z,8.60
2019-02-24T12:18:34.126Z,9.40
2019-02-24T12:19:34.109Z,8.50
2019-02-24T12:20:34.115Z,9.40
2019-02-24T12:21:34.107Z,9.60
2019-02-24T12:22:34.077Z,9.60
2019-02-24T12:23:34.078Z,9.00
2019-02-24T12:24:34.066Z,9.70
2019-02-24T12:25:34.052Z,9.40
2019-02-24T12:26:35.204Z,9.00
2019-02-24T12:27:34.028Z,8.60
2019-02-24T12:28:34.008Z,8.60
2019-02-24T12:29:34.003Z,8.90
2019-02-24T12:30:33.993Z,9.00
2019-02-24T12:31:33.976Z,9.40
2019-02-24T12:32:33.985Z,9.30
2019-02-24T12:33:33.948Z,9.20
2019-02-24T12:34:33.952Z,10.10
2019-02-24T12:35:33.929Z,8.60
2019-02-24T12:36:33.924Z,7.80
2019-02-24T12:37:33.932Z,7.80
2019-02-24T12:38:33.906Z,8.00
2019-02-24T12:39:33.891Z,7.70
2019-02-24T12:40:33.872Z,7.70
2019-02-24T12:41:33.874Z,6.40
2019-02-24T12:42:33.887Z,6.90
2019-02-24T12:43:33.856Z,7.20
2019-02-24T12:44:33.849Z,6.20
2019-02-24T12:46:43.007Z,6.10
2019-02-24T12:47:44.024Z,6.70
2019-02-24T12:48:43.987Z,7.70
2019-02-24T12:49:43.977Z,7.00
2019-02-24T12:50:43.965Z,7.30
2019-02-24T12:51:43.959Z,7.30
2019-02-24T12:52:43.963Z,7.40
2019-02-24T12:53:43.948Z,7.50
2019-02-24T12:54:43.936Z,7.80
2019-02-24T12:55:43.919Z,7.80
2019-02-24T12:56:43.904Z,8.40
2019-02-24T12:57:43.919Z,8.00
2019-02-24T12:58:43.895Z,8.00
2019-02-24T12:59:43.886Z,7.60
2019-02-24T13:00:43.885Z,7.30
2019-02-24T13:01:44.314Z,8.30
2019-02-24T13:02:44.787Z,7.60
2019-02-24T13:03:43.853Z,7.20
2019-02-24T13:04:43.844Z,8.20
2019-02-24T13:05:43.812Z,7.60
2019-02-24T13:06:43.798Z,9.30